createdAt,value
2022-12-20T00:00:54.084Z,2.90
2022-12-20T00:03:21.843Z,2.30
2022-12-20T00:05:49.491Z,2.87
2022-12-20T00:08:17.191Z,3.33
2022-12-20T00:10:45.893Z,2.80
2022-12-20T00:13:13.935Z,2.90
2022-12-20T00:15:41.638Z,2.77
2022-12-20T00:18:10.766Z,2.93
2022-12-20T00:20:38.713Z,2.87
2022-12-20T00:23:06.302Z,3.10
2022-12-20T00:25:33.904Z,2.50
2022-12-20T00:28:03.097Z,2.90
2022-12-20T00:30:30.739Z,2.90
2022-12-20T00:32:58.475Z,2.70
2022-12-20T00:35:27.394Z,2.87
2022-12-20T00:37:55.249Z,2.60
2022-12-20T00:40:22.907Z,2.40
2022-12-20T00:42:50.766Z,2.23
2022-12-20T00:45:18.411Z,3.20
2022-12-20T00:47:46.143Z,2.90
2022-12-20T00:50:13.758Z,2.23
2022-12-20T00:52:42.913Z,2.67
2022-12-20T00:55:10.625Z,2.97
2022-12-20T00:57:38.406Z,2.40
2022-12-20T01:00:07.034Z,3.00
2022-12-20T01:02:35.721Z,2.77
2022-12-20T01:05:03.597Z,3.00
2022-12-20T01:07:31.364Z,2.93
2022-12-20T01:10:00.349Z,3.10
2022-12-20T01:12:28.179Z,2.43
2022-12-20T01:14:56.088Z,2.43
2022-12-20T01:17:25.594Z,2.90
2022-12-20T01:19:53.158Z,2.70
2022-12-20T01:22:21.035Z,2.87
2022-12-20T01:24:48.740Z,2.00
2022-12-20T01:27:17.880Z,2.57
2022-12-20T01:29:45.504Z,2.47
2022-12-20T01:32:13.312Z,2.80
2022-12-20T01:34:40.962Z,2.40
2022-12-20T01:37:08.834Z,2.67
2022-12-20T01:39:36.465Z,2.57
2022-12-20T01:42:04.387Z,2.27
2022-12-20T01:45:00.465Z,2.20
2022-12-20T01:47:28.407Z,3.20
2022-12-20T01:49:56.180Z,2.93
2022-12-20T01:52:27.478Z,3.00
2022-12-20T01:54:56.223Z,2.40
2022-12-20T01:57:25.456Z,2.50
2022-12-20T01:59:54.054Z,2.40
2022-12-20T02:02:23.657Z,3.17
2022-12-20T02:04:51.778Z,2.60
2022-12-20T02:07:20.718Z,3.30
2022-12-20T02:09:48.391Z,3.33
2022-12-20T02:12:16.570Z,3.20
2022-12-20T02:14:51.352Z,3.33
2022-12-20T02:17:22.371Z,3.17
2022-12-20T02:20:12.847Z,2.87
2022-12-20T02:22:47.572Z,3.30
2022-12-20T02:25:29.195Z,3.20
2022-12-20T02:28:01.072Z,3.43
2022-12-20T02:30:32.624Z,3.60
2022-12-20T02:33:01.396Z,3.60
2022-12-20T02:35:31.932Z,3.20
2022-12-20T02:38:00.418Z,3.07
2022-12-20T02:40:29.144Z,3.33
2022-12-20T02:42:58.453Z,3.73
2022-12-20T02:45:26.985Z,3.07
2022-12-20T02:47:56.815Z,3.47
2022-12-20T02:50:26.342Z,4.07
2022-12-20T02:52:53.989Z,3.93
2022-12-20T02:55:22.057Z,4.20
2022-12-20T02:57:57.868Z,2.70
2022-12-20T03:00:27.890Z,4.03
2022-12-20T03:03:14.425Z,4.43
2022-12-20T03:05:45.032Z,4.10
2022-12-20T03:08:12.663Z,4.27
2022-12-20T03:10:40.517Z,3.77
2022-12-20T03:13:08.334Z,4.40
2022-12-20T03:15:37.133Z,4.13
2022-12-20T03:18:06.145Z,3.70
2022-12-20T03:20:33.806Z,4.07
2022-12-20T03:25:36.039Z,3.77
2022-12-20T03:28:04.561Z,3.77
2022-12-20T03:30:32.331Z,4.30
2022-12-20T03:32:59.998Z,3.33
2022-12-20T03:35:29.002Z,3.67
2022-12-20T03:37:56.661Z,3.70
2022-12-20T03:40:25.423Z,3.80
2022-12-20T03:42:53.044Z,3.10
2022-12-20T03:45:20.883Z,3.47
2022-12-20T03:47:48.517Z,3.30
2022-12-20T03:50:16.905Z,3.63
2022-12-20T03:52:45.829Z,3.40
2022-12-20T03:55:13.568Z,3.43
2022-12-20T03:57:42.097Z,4.40
2022-12-20T04:00:12.440Z,4.10
2022-12-20T04:02:40.354Z,3.83
2022-12-20T04:05:08.957Z,4.13
2022-12-20T04:07:36.538Z,3.57
2022-12-20T04:10:07.031Z,4.27
2022-12-20T04:12:34.626Z,4.10
2022-12-20T04:15:02.386Z,3.67
2022-12-20T04:17:29.972Z,4.33
2022-12-20T04:19:57.632Z,4.10
2022-12-20T04:22:25.767Z,3.77
2022-12-20T04:24:53.394Z,4.00
2022-12-20T04:27:22.338Z,3.33
2022-12-20T04:29:49.943Z,3.23
2022-12-20T04:32:18.540Z,3.90
2022-12-20T04:34:46.105Z,4.20
2022-12-20T04:37:14.742Z,4.50
2022-12-20T04:39:44.672Z,3.70
2022-12-20T04:42:12.309Z,4.20
2022-12-20T04:44:41.243Z,4.23
2022-12-20T04:47:10.065Z,5.50
2022-12-20T04:49:37.628Z,4.43
2022-12-20T04:52:19.652Z,4.40
2022-12-20T04:54:47.742Z,4.23
2022-12-20T04:57:18.322Z,5.33
2022-12-20T04:59:47.365Z,3.20
2022-12-20T05:02:15.003Z,4.67
2022-12-20T05:04:43.224Z,5.27
2022-12-20T05:07:10.836Z,5.00
2022-12-20T05:09:38.828Z,4.60
2022-12-20T05:12:06.765Z,5.60
2022-12-20T05:14:34.568Z,4.43
2022-12-20T05:17:03.499Z,4.83
2022-12-20T05:19:31.369Z,5.17
2022-12-20T05:22:16.594Z,4.47
2022-12-20T05:25:01.495Z,5.17
2022-12-20T05:27:29.103Z,4.13
2022-12-20T05:29:56.932Z,5.27
2022-12-20T05:32:25.837Z,3.80
2022-12-20T05:34:53.533Z,5.13
2022-12-20T05:37:21.106Z,5.00
2022-12-20T05:39:48.841Z,4.87
2022-12-20T05:42:16.404Z,4.17
2022-12-20T05:44:44.137Z,4.63
2022-12-20T05:47:11.820Z,4.50
2022-12-20T05:49:40.884Z,4.17
2022-12-20T05:52:08.633Z,4.07
2022-12-20T05:54:36.562Z,4.40
2022-12-20T05:57:04.295Z,4.87
2022-12-20T05:59:32.099Z,4.80
2022-12-20T06:02:00.115Z,3.83
2022-12-20T06:04:28.009Z,4.00
2022-12-20T06:06:57.093Z,4.60
2022-12-20T06:09:24.855Z,4.37
2022-12-20T06:11:52.432Z,3.90
2022-12-20T06:14:20.346Z,4.40
2022-12-20T06:16:48.011Z,3.37
2022-12-20T06:19:21.142Z,3.70
2022-12-20T06:21:49.313Z,3.97
2022-12-20T06:24:18.579Z,4.53
2022-12-20T06:26:48.259Z,3.90
2022-12-20T06:29:17.492Z,3.90
2022-12-20T06:31:45.376Z,3.93
2022-12-20T06:34:12.991Z,4.03
2022-12-20T06:36:40.679Z,3.20
2022-12-20T06:39:09.905Z,3.40
2022-12-20T06:41:41.795Z,3.43
2022-12-20T06:44:09.410Z,4.10
2022-12-20T06:46:37.198Z,4.07
2022-12-20T06:49:04.790Z,4.13
2022-12-20T06:51:32.503Z,4.00
2022-12-20T06:54:00.102Z,3.50
2022-12-20T06:56:27.700Z,3.83
2022-12-20T06:58:56.828Z,3.73
2022-12-20T07:01:24.552Z,3.70
2022-12-20T07:03:52.414Z,3.63
2022-12-20T07:06:20.046Z,3.67
2022-12-20T07:08:48.031Z,3.40
2022-12-20T07:11:15.604Z,3.70
2022-12-20T07:13:43.305Z,3.17
2022-12-20T07:16:12.508Z,3.13
2022-12-20T07:18:40.274Z,3.20
2022-12-20T07:21:07.845Z,4.47
2022-12-20T07:23:35.418Z,4.00
2022-12-20T07:26:04.485Z,3.53
2022-12-20T07:28:32.395Z,3.03
2022-12-20T07:31:01.882Z,3.13
2022-12-20T07:33:30.885Z,2.63
2022-12-20T07:36:02.200Z,3.90
2022-12-20T07:38:30.278Z,3.23
2022-12-20T07:40:58.090Z,3.60
2022-12-20T07:43:25.733Z,3.30
2022-12-20T07:45:56.306Z,3.43
2022-12-20T07:48:24.365Z,3.00
2022-12-20T07:51:02.689Z,3.40
2022-12-20T07:53:30.434Z,3.50
2022-12-20T07:55:58.712Z,3.40
2022-12-20T07:58:27.189Z,3.23
2022-12-20T08:00:55.129Z,4.00
2022-12-20T08:03:24.123Z,3.20
2022-12-20T08:05:54.311Z,3.77
2022-12-20T08:08:22.133Z,2.77
2022-12-20T08:10:49.957Z,2.97
2022-12-20T08:13:17.575Z,3.40
2022-12-20T08:15:45.509Z,2.37
2022-12-20T08:18:13.056Z,3.13
2022-12-20T08:20:40.790Z,8.40
2022-12-20T08:23:09.809Z,3.33
2022-12-20T08:25:41.728Z,3.30
2022-12-20T08:28:09.888Z,3.00
2022-12-20T08:30:37.818Z,3.10
2022-12-20T08:33:05.520Z,3.00
2022-12-20T08:35:33.278Z,2.90
2022-12-20T08:38:00.938Z,2.43
2022-12-20T08:40:30.053Z,3.30
2022-12-20T08:42:57.931Z,3.03
2022-12-20T08:45:26.608Z,2.87
2022-12-20T08:47:54.835Z,3.30
2022-12-20T08:50:22.402Z,3.53
2022-12-20T08:52:49.964Z,3.10
2022-12-20T08:55:20.909Z,3.00
2022-12-20T08:57:52.467Z,3.27
2022-12-20T09:00:20.822Z,2.90
2022-12-20T09:02:51.859Z,2.97
2022-12-20T09:05:19.829Z,2.47
2022-12-20T09:07:47.413Z,2.70
2022-12-20T09:10:14.991Z,1.73
2022-12-20T09:12:45.521Z,3.00
2022-12-20T09:15:15.836Z,3.20
2022-12-20T09:17:43.391Z,2.83
2022-12-20T09:20:11.427Z,3.37
2022-12-20T09:25:14.078Z,3.10
2022-12-20T09:27:41.781Z,2.90
2022-12-20T09:30:10.465Z,2.70
2022-12-20T09:32:39.570Z,2.80
2022-12-20T09:35:07.888Z,2.63
2022-12-20T09:37:35.756Z,2.63
2022-12-20T09:40:04.358Z,2.73
2022-12-20T09:42:32.021Z,3.27
2022-12-20T09:45:03.346Z,2.53
2022-12-20T09:47:30.946Z,3.20
2022-12-20T09:49:59.931Z,3.17
2022-12-20T09:52:35.722Z,2.57
2022-12-20T09:55:10.899Z,2.87
2022-12-20T09:57:46.106Z,2.57
2022-12-20T10:00:16.073Z,2.97
2022-12-20T10:02:58.918Z,2.60
2022-12-20T10:05:40.798Z,2.60
2022-12-20T10:08:12.996Z,2.07
2022-12-20T10:10:50.773Z,2.90
2022-12-20T10:13:27.268Z,2.50
2022-12-20T10:15:56.759Z,3.07
2022-12-20T10:18:35.816Z,3.27
2022-12-20T10:21:07.766Z,2.70
2022-12-20T10:23:38.449Z,1.80
2022-12-20T10:26:09.469Z,2.60
2022-12-20T10:28:37.527Z,2.87
2022-12-20T10:31:07.937Z,2.53
2022-12-20T10:33:35.792Z,2.10
2022-12-20T10:36:21.802Z,2.60
2022-12-20T10:38:50.110Z,2.40
2022-12-20T10:41:21.805Z,1.80
2022-12-20T10:43:52.058Z,2.93
2022-12-20T10:46:19.826Z,2.57
2022-12-20T10:48:47.888Z,2.50
2022-12-20T10:51:17.378Z,2.23
2022-12-20T10:53:54.268Z,2.33
2022-12-20T10:56:22.752Z,2.83
2022-12-20T10:58:57.855Z,2.50
2022-12-20T11:01:28.234Z,2.67
2022-12-20T11:03:58.252Z,2.93
2022-12-20T11:06:28.720Z,2.30
2022-12-20T11:09:22.326Z,2.30
2022-12-20T11:11:59.215Z,2.20
2022-12-20T11:14:27.844Z,2.20
2022-12-20T11:17:00.311Z,2.37
2022-12-20T11:19:34.893Z,2.07
2022-12-20T11:22:05.139Z,2.10
2022-12-20T11:24:35.378Z,2.37
2022-12-20T11:27:15.659Z,2.50
2022-12-20T11:30:05.060Z,2.70
2022-12-20T11:32:48.444Z,2.47
2022-12-20T11:35:19.532Z,2.57
2022-12-20T11:37:50.981Z,2.47
2022-12-20T11:40:28.408Z,2.00
2022-12-20T11:43:05.695Z,2.60
2022-12-20T11:45:41.534Z,2.23
2022-12-20T11:48:23.350Z,2.50
2022-12-20T11:50:57.600Z,2.30
2022-12-20T11:53:27.845Z,1.70
2022-12-20T11:55:59.225Z,2.60
2022-12-20T11:58:27.872Z,2.93
2022-12-20T12:00:58.185Z,2.40
2022-12-20T12:03:29.788Z,2.80
2022-12-20T12:05:58.732Z,2.60
2022-12-20T12:08:29.151Z,2.50
2022-12-20T12:11:00.384Z,2.20
2022-12-20T12:13:29.013Z,2.10
2022-12-20T12:16:00.221Z,2.13
2022-12-20T12:18:29.695Z,1.73
2022-12-20T12:21:06.614Z,2.43
2022-12-20T12:23:40.259Z,1.97
2022-12-20T12:26:13.319Z,2.40
2022-12-20T12:28:41.047Z,2.03
2022-12-20T12:31:11.715Z,2.17
2022-12-20T12:33:42.683Z,1.83
2022-12-20T12:36:17.861Z,2.57
2022-12-20T12:39:18.856Z,1.97
2022-12-20T12:42:28.018Z,2.47
2022-12-20T12:44:57.556Z,2.00
2022-12-20T12:47:29.135Z,2.33
2022-12-20T12:49:56.730Z,2.10
2022-12-20T12:52:43.658Z,2.00
2022-12-20T12:55:36.893Z,2.03
2022-12-20T12:58:31.010Z,3.10
2022-12-20T13:01:00.418Z,2.97
2022-12-20T13:03:45.987Z,2.23
2022-12-20T13:06:49.868Z,2.23
2022-12-20T13:09:22.280Z,2.80
2022-12-20T13:11:57.424Z,2.60
2022-12-20T13:14:50.860Z,2.50
2022-12-20T13:17:54.060Z,2.70
2022-12-20T13:20:23.336Z,2.70
2022-12-20T13:23:07.886Z,2.40
2022-12-20T13:25:36.579Z,2.70
2022-12-20T13:28:42.210Z,2.80
2022-12-20T13:31:32.584Z,2.73
2022-12-20T13:34:03.985Z,2.17
2022-12-20T13:36:36.155Z,2.60
2022-12-20T13:39:31.459Z,2.80
2022-12-20T13:42:14.126Z,2.70
2022-12-20T13:44:42.937Z,1.87
2022-12-20T13:47:28.324Z,2.37
2022-12-20T13:50:00.400Z,2.70
2022-12-20T13:52:30.062Z,2.50
2022-12-20T13:55:00.563Z,1.87
2022-12-20T13:57:32.942Z,2.80
2022-12-20T14:00:07.028Z,2.37
2022-12-20T14:02:37.295Z,2.30
2022-12-20T14:05:10.272Z,2.17
2022-12-20T14:07:38.855Z,2.93
2022-12-20T14:10:18.216Z,2.27
2022-12-20T14:12:46.137Z,3.00
2022-12-20T14:15:23.247Z,2.60
2022-12-20T14:17:50.861Z,2.23
2022-12-20T14:20:22.805Z,3.10
2022-12-20T14:23:00.756Z,3.80
2022-12-20T14:25:36.420Z,4.03
2022-12-20T14:28:04.060Z,3.00
2022-12-20T14:30:49.806Z,2.60
2022-12-20T14:33:20.922Z,2.80
2022-12-20T14:35:50.998Z,2.97
2022-12-20T14:38:23.297Z,2.70
2022-12-20T14:40:54.173Z,2.33
2022-12-20T14:43:27.306Z,2.93
2022-12-20T14:46:18.104Z,2.60
2022-12-20T14:48:47.080Z,2.57
2022-12-20T14:51:20.263Z,2.67
2022-12-20T14:53:50.984Z,2.33
2022-12-20T14:56:21.733Z,2.90
2022-12-20T14:59:13.678Z,2.67
2022-12-20T15:01:44.250Z,2.67
2022-12-20T15:04:23.015Z,3.17
2022-12-20T15:06:52.705Z,2.70
2022-12-20T15:09:20.650Z,2.90
2022-12-20T15:11:48.468Z,3.40
2022-12-20T15:14:35.086Z,3.13
2022-12-20T15:17:02.991Z,2.87
2022-12-20T15:19:31.343Z,3.00
2022-12-20T15:22:00.365Z,3.10
2022-12-20T15:24:29.426Z,2.80
2022-12-20T15:26:57.268Z,2.97
2022-12-20T15:29:25.489Z,3.20
2022-12-20T15:31:53.591Z,3.10
2022-12-20T15:34:28.381Z,3.23
2022-12-20T15:36:56.745Z,3.07
2022-12-20T15:39:25.891Z,3.20
2022-12-20T15:41:53.653Z,3.47
2022-12-20T15:44:23.462Z,3.13
2022-12-20T15:46:52.514Z,2.73
2022-12-20T15:49:22.001Z,3.00
2022-12-20T15:51:50.111Z,3.03
2022-12-20T15:54:24.084Z,2.30
2022-12-20T15:56:53.154Z,3.17
2022-12-20T15:59:57.558Z,3.17
2022-12-20T16:02:13.249Z,3.30
2022-12-20T16:04:41.091Z,3.33
2022-12-20T16:07:12.436Z,3.00
2022-12-20T16:09:40.271Z,3.07
2022-12-20T16:12:14.613Z,3.37
2022-12-20T16:14:42.189Z,3.27
2022-12-20T16:17:15.137Z,3.17
2022-12-20T16:19:44.627Z,3.23
2022-12-20T16:22:15.460Z,2.87
2022-12-20T16:24:43.413Z,3.37
2022-12-20T16:27:12.808Z,3.60
2022-12-20T16:29:41.307Z,3.47
2022-12-20T16:32:13.864Z,3.30
2022-12-20T16:34:41.642Z,3.47
2022-12-20T16:37:09.234Z,2.97
2022-12-20T16:39:36.865Z,3.50
2022-12-20T16:42:04.798Z,3.50
2022-12-20T16:44:33.984Z,2.87
2022-12-20T16:47:02.134Z,2.93
2022-12-20T16:49:29.935Z,3.17
2022-12-20T16:51:57.659Z,3.43
2022-12-20T16:54:25.498Z,5.73
2022-12-20T16:56:55.506Z,3.73
2022-12-20T16:59:23.632Z,3.50
2022-12-20T17:01:53.866Z,3.27
2022-12-20T17:04:22.181Z,3.60
2022-12-20T17:06:50.063Z,3.23
2022-12-20T17:12:04.235Z,4.03
2022-12-20T17:14:33.061Z,4.20
2022-12-20T17:17:02.221Z,4.77
2022-12-20T17:19:29.902Z,4.00
2022-12-20T17:24:42.602Z,4.00
2022-12-20T17:32:27.643Z,2.70
2022-12-20T17:34:55.508Z,4.20
2022-12-20T17:37:24.647Z,3.63
2022-12-20T17:39:52.506Z,3.80
2022-12-20T17:42:23.162Z,3.47
2022-12-20T17:44:53.647Z,3.97
2022-12-20T17:47:21.542Z,3.13
2022-12-20T17:49:50.881Z,3.50
2022-12-20T17:52:20.559Z,3.87
2022-12-20T17:54:48.277Z,6.10
2022-12-20T17:57:16.332Z,4.17
2022-12-20T17:59:43.993Z,4.03
2022-12-20T18:02:20.122Z,4.00
2022-12-20T18:04:48.176Z,4.47
2022-12-20T18:07:17.258Z,3.70
2022-12-20T18:09:47.571Z,4.03
2022-12-20T18:12:15.211Z,4.53
2022-12-20T18:14:42.799Z,3.60
2022-12-20T18:17:10.918Z,4.50
2022-12-20T18:19:39.467Z,6.23
2022-12-20T18:22:08.244Z,3.80
2022-12-20T18:24:37.490Z,5.63
2022-12-20T18:27:05.154Z,4.27
2022-12-20T18:29:32.994Z,4.30
2022-12-20T18:32:00.783Z,4.30
2022-12-20T18:34:28.612Z,4.07
2022-12-20T18:36:56.210Z,3.80
2022-12-20T18:39:24.939Z,3.37
2022-12-20T18:41:53.886Z,3.70
2022-12-20T18:44:21.510Z,3.57
2022-12-20T18:46:49.245Z,3.97
2022-12-20T18:49:16.968Z,3.80
2022-12-20T18:51:44.881Z,3.80
2022-12-20T18:54:13.518Z,3.40
2022-12-20T18:56:41.656Z,3.97
2022-12-20T18:59:12.686Z,3.60
2022-12-20T19:01:41.445Z,3.97
2022-12-20T19:04:09.685Z,3.83
2022-12-20T19:06:38.084Z,5.23
2022-12-20T19:09:07.084Z,3.80
2022-12-20T19:11:34.903Z,4.23
2022-12-20T19:14:03.600Z,4.00
2022-12-20T19:16:33.385Z,4.17
2022-12-20T19:19:01.638Z,4.07
2022-12-20T19:21:29.916Z,4.63
2022-12-20T19:23:58.754Z,4.77
2022-12-20T19:26:27.686Z,4.73
2022-12-20T19:28:55.799Z,5.07
2022-12-20T19:31:24.638Z,4.60
2022-12-20T19:33:55.070Z,4.27
2022-12-20T19:36:25.196Z,4.07
2022-12-20T19:38:55.328Z,4.07
2022-12-20T19:41:23.668Z,4.43
2022-12-20T19:43:52.138Z,4.43
2022-12-20T19:46:25.098Z,4.53
2022-12-20T19:48:57.330Z,4.40
2022-12-20T19:51:25.733Z,4.53
2022-12-20T19:53:54.232Z,4.83
2022-12-20T19:56:23.685Z,5.30
2022-12-20T19:58:51.381Z,5.73
2022-12-20T20:01:19.538Z,5.00
2022-12-20T20:03:50.321Z,5.10
2022-12-20T20:06:21.331Z,6.80
2022-12-20T20:08:51.454Z,15.33
2022-12-20T20:11:20.879Z,5.40
2022-12-20T20:13:48.912Z,4.37
2022-12-20T20:16:22.270Z,4.67
2022-12-20T20:18:50.887Z,5.33
2022-12-20T20:21:22.617Z,5.03
2022-12-20T20:23:50.588Z,5.27
2022-12-20T20:26:19.525Z,3.60
2022-12-20T20:28:47.131Z,4.97
2022-12-20T20:31:15.845Z,5.27
2022-12-20T20:33:44.066Z,5.37
2022-12-20T20:36:13.987Z,5.10
2022-12-20T20:38:44.510Z,5.23
2022-12-20T20:41:12.539Z,5.80
2022-12-20T20:43:40.742Z,4.90
2022-12-20T20:46:09.737Z,4.63
2022-12-20T20:48:37.545Z,4.27
2022-12-20T20:51:06.573Z,5.00
2022-12-20T20:53:34.967Z,4.23
2022-12-20T20:56:05.732Z,4.60
2022-12-20T20:58:33.669Z,4.90
2022-12-20T21:01:02.818Z,4.70
2022-12-20T21:03:30.973Z,4.80
2022-12-20T21:08:47.647Z,4.87
2022-12-20T21:11:17.075Z,4.63
2022-12-20T21:13:44.925Z,5.77
2022-12-20T21:16:14.059Z,4.80
2022-12-20T21:18:41.893Z,4.60
2022-12-20T21:21:10.428Z,5.00
2022-12-20T21:23:38.411Z,6.03
2022-12-20T21:26:07.510Z,6.80
2022-12-20T21:28:36.554Z,8.43
2022-12-20T21:31:05.596Z,6.60
2022-12-20T21:33:33.434Z,6.87
2022-12-20T21:36:01.909Z,6.03
2022-12-20T21:38:29.565Z,5.90
2022-12-20T21:41:01.262Z,5.87
2022-12-20T21:43:29.029Z,6.70
2022-12-20T21:45:58.049Z,6.50
2022-12-20T21:48:25.985Z,6.53
2022-12-20T21:51:00.606Z,7.20
2022-12-20T21:53:28.308Z,6.40
2022-12-20T21:55:56.496Z,6.50
2022-12-20T21:58:24.142Z,6.80
2022-12-20T22:00:55.082Z,6.73
2022-12-20T22:03:24.768Z,7.10
2022-12-20T22:05:53.317Z,6.90
2022-12-20T22:08:21.277Z,6.83
2022-12-20T22:10:49.816Z,6.73
2022-12-20T22:13:17.544Z,7.50
2022-12-20T22:15:45.129Z,6.93
2022-12-20T22:18:12.791Z,6.90
2022-12-20T22:20:44.826Z,7.17
2022-12-20T22:23:12.463Z,7.80
2022-12-20T22:25:40.263Z,7.40
2022-12-20T22:28:07.957Z,7.40
2022-12-20T22:30:35.678Z,7.93
2022-12-20T22:33:03.312Z,8.13
2022-12-20T22:35:30.876Z,7.90
2022-12-20T22:37:59.864Z,8.27
2022-12-20T22:40:27.469Z,8.50
2022-12-20T22:42:55.031Z,7.97
2022-12-20T22:45:22.826Z,9.60
2022-12-20T22:47:50.901Z,9.03
2022-12-20T22:50:18.855Z,8.53
2022-12-20T22:52:47.429Z,8.83
2022-12-20T22:55:16.774Z,8.83
2022-12-20T22:57:44.546Z,8.20
2022-12-20T23:00:13.989Z,8.17
2022-12-20T23:02:41.958Z,7.87
2022-12-20T23:05:10.429Z,7.70
2022-12-20T23:07:38.124Z,7.67
2022-12-20T23:10:26.565Z,7.20
2022-12-20T23:13:13.474Z,7.50
2022-12-20T23:15:41.288Z,6.80
2022-12-20T23:18:08.830Z,6.80
2022-12-20T23:20:54.373Z,7.53
2022-12-20T23:23:21.931Z,7.43
2022-12-20T23:25:49.718Z,7.57
2022-12-20T23:30:48.552Z,7.73
2022-12-20T23:33:16.095Z,8.00
2022-12-20T23:35:43.966Z,7.60
2022-12-20T23:38:11.596Z,7.60
2022-12-20T23:40:41.201Z,8.20
2022-12-20T23:43:08.798Z,7.67
2022-12-20T23:45:36.613Z,8.17
2022-12-20T23:48:06.357Z,8.20
2022-12-20T23:50:34.127Z,7.10
2022-12-20T23:53:01.793Z,7.20
2022-12-20T23:55:29.588Z,7.77
2022-12-20T23:57:57.175Z,7.47
